Time;durP1;ratioP1;P1;durP2;ratioP2;P2;SDS_P1;SDS_P2;PMS_P1;PMS_P2;Temp;Humidity;BMP_temperature;BMP_pressure;BME280_temperature;BME280_humidity;BME280_pressure;Samples;Min_cycle;Max_cycle;Signal;HPM_P1;HPM_P2
2022/02/03 00:01:15;;;;;;;6.07;3.63;;;128.10;2252.80;;;;;;5084525;27;20035;-79
2022/02/03 00:03:57;;;;;;;7.38;3.10;;;128.10;2252.80;;;;;;5092960;28;20032;-81
2022/02/03 00:06:46;;;;;;;4.10;2.28;;;128.10;2252.80;;;;;;5096025;27;20023;-81
2022/02/03 00:30:58;;;;;;;7.00;2.70;;;128.10;2252.80;;;;;;5101391;27;20075;-79
2022/02/03 00:33:21;;;;;;;7.72;3.15;;;128.10;2252.80;;;;;;5102419;27;20059;-82
2022/02/03 00:36:12;;;;;;;7.60;3.55;;;128.00;2252.80;;;;;;5106847;27;20036;-80
2022/02/03 00:49:47;;;;;;;13.95;4.70;;;128.00;2252.80;;;;;;5108736;27;20069;-79
2022/02/03 00:52:13;;;;;;;6.40;2.83;;;128.00;2252.80;;;;;;5103948;27;20104;-83
2022/02/03 00:54:39;;;;;;;8.10;3.72;;;128.10;2252.80;;;;;;5103423;27;20030;-81
2022/02/03 00:57:08;;;;;;;9.30;3.47;;;128.00;2252.80;;;;;;5104279;28;20035;-80
2022/02/03 00:59:52;;;;;;;12.27;3.83;;;128.00;2252.80;;;;;;5089354;27;20023;-83
2022/02/03 01:02:21;;;;;;;;;;;128.00;2252.80;;;;;;5106956;27;20024;-81
2022/02/03 01:04:49;;;;;;;4.80;2.78;;;128.00;2252.80;;;;;;5114784;27;19903;-84
2022/02/03 01:07:17;;;;;;;15.73;3.95;;;128.00;2252.80;;;;;;5114969;27;20466;-81
2022/02/03 01:10:00;;;;;;;7.90;3.15;;;128.00;2252.80;;;;;;5097407;28;20028;-84
2022/02/03 01:12:40;;;;;;;4.68;2.30;;;128.00;2252.80;;;;;;5100735;27;20023;-80
2022/02/03 01:15:18;;;;;;;7.28;3.22;;;128.00;2252.80;;;;;;5094108;28;20028;-80
2022/02/03 01:17:53;;;;;;;8.75;3.03;;;128.00;2252.80;;;;;;5103085;27;20061;-79
2022/02/03 01:45:16;;;;;;;10.15;3.78;;;128.00;2252.80;;;;;;5093920;28;20433;-79
2022/02/03 01:52:46;;;;;;;6.60;3.60;;;103.30;2227.20;;;;;;5132103;27;20023;-80
2022/02/03 01:55:32;;;;;;;9.90;3.33;;;103.30;2227.20;;;;;;5120040;27;20046;-79
2022/02/03 01:58:17;;;;;;;4.82;2.28;;;103.30;2227.20;;;;;;5105940;27;20047;-80
2022/02/03 02:01:00;;;;;;;6.18;2.95;;;103.30;2227.20;;;;;;5102301;28;20110;-79
2022/02/03 02:03:36;;;;;;;6.90;3.45;;;103.30;2227.20;;;;;;5087188;28;20023;-81
2022/02/03 02:06:40;;;;;;;7.43;3.30;;;103.30;2227.20;;;;;;5102854;28;20031;-83
2022/02/03 02:09:27;;;;;;;7.13;2.80;;;103.30;2227.20;;;;;;5055962;28;20028;-81
2022/02/03 02:12:40;;;;;;;6.72;4.47;;;103.30;2227.20;;;;;;5098369;28;20286;-79
2022/02/03 02:43:32;;;;;;;6.93;3.03;;;103.20;2227.20;;;;;;5131645;28;20454;-80
2022/02/03 02:46:26;;;;;;;9.00;3.90;;;103.20;2227.20;;;;;;5088883;28;20035;-81
2022/02/03 02:49:16;;;;;;;4.50;2.47;;;103.20;2227.20;;;;;;5091277;28;20041;-78
2022/02/03 02:52:36;;;;;;;5.25;2.60;;;103.10;2227.20;;;;;;5119453;28;20053;-80
2022/02/03 02:55:03;;;;;;;5.72;3.03;;;103.10;2227.20;;;;;;5115884;28;20036;-80
2022/02/03 03:03:27;;;;;;;10.43;4.07;;;103.10;2227.20;;;;;;5115117;27;20050;-79
2022/02/03 03:31:11;;;;;;;6.60;3.25;;;103.10;2227.20;;;;;;5117151;27;20082;-83
2022/02/03 03:33:55;;;;;;;3.95;2.47;;;103.00;2227.20;;;;;;5103573;28;20494;-82
2022/02/03 03:36:22;;;;;;;4.57;2.97;;;103.00;2227.20;;;;;;5114826;27;20035;-80
2022/02/03 03:38:49;;;;;;;8.98;4.07;;;103.00;2227.20;;;;;;5097550;27;20413;-81
2022/02/03 03:41:20;;;;;;;8.68;3.97;;;103.00;2227.20;;;;;;5128011;27;20099;-85
2022/02/03 03:44:05;;;;;;;7.68;3.72;;;103.00;2227.20;;;;;;5126705;27;20027;-81
2022/02/03 03:46:36;;;;;;;6.75;3.05;;;103.00;2227.20;;;;;;5121598;27;20030;-83
2022/02/03 03:49:30;;;;;;;6.28;3.30;;;102.90;2227.20;;;;;;5119073;27;20466;-84
2022/02/03 03:52:06;;;;;;;8.20;3.30;;;102.90;2227.20;;;;;;5104723;27;20095;-83
2022/02/03 04:59:10;;;;;;;9.32;4.28;;;102.70;2227.20;;;;;;5119253;27;20035;-80
2022/02/03 05:05:45;;;;;;;6.10;3.38;;;102.70;2227.20;;;;;;5104905;28;20038;-80
2022/02/03 05:10:35;;;;;;;16.63;3.50;;;102.70;2227.20;;;;;;5113070;27;19965;-86
2022/02/03 05:13:41;;;;;;;6.88;3.65;;;102.70;2227.20;;;;;;5091992;28;20496;-87
2022/02/03 05:46:01;;;;;;;11.40;4.75;;;102.70;2227.20;;;;;;5106120;27;20024;-87
2022/02/03 05:48:53;;;;;;;5.65;3.58;;;102.80;2227.20;;;;;;5093655;27;20020;-85
2022/02/03 06:15:24;;;;;;;9.80;6.18;;;76.80;2227.20;;;;;;5098240;28;20101;-79
2022/02/03 06:24:02;;;;;;;6.82;5.53;;;77.00;2227.20;;;;;;5097311;28;20032;-77
2022/02/03 06:29:17;;;;;;;10.63;4.40;;;77.00;2227.20;;;;;;5103385;28;20058;-78
2022/02/03 06:31:47;;;;;;;10.98;6.22;;;77.00;2227.20;;;;;;5092848;28;20119;-80
2022/02/03 06:34:13;;;;;;;9.88;4.75;;;77.10;2227.20;;;;;;5099010;27;20130;-79
2022/02/03 06:36:40;;;;;;;16.65;6.03;;;77.10;2227.20;;;;;;5103716;27;20530;-79
2022/02/03 06:39:27;;;;;;;10.23;6.68;;;77.10;2227.20;;;;;;5088258;28;20020;-78
2022/02/03 06:41:57;;;;;;;9.40;5.82;;;77.10;2227.20;;;;;;5101270;27;20031;-79
2022/02/03 06:44:33;;;;;;;10.43;5.07;;;77.10;2227.20;;;;;;5115724;27;20463;-81
2022/02/03 06:47:05;;;;;;;14.90;5.35;;;77.20;2227.20;;;;;;5105783;28;20020;-81
2022/02/03 06:49:58;;;;;;;7.88;5.00;;;77.20;2227.20;;;;;;5090461;28;20118;-85
2022/02/03 06:52:30;;;;;;;11.90;6.07;;;77.20;2227.20;;;;;;5108683;27;20035;-80
2022/02/03 06:55:10;;;;;;;12.23;6.28;;;77.20;2227.20;;;;;;5087688;28;20020;-83
2022/02/03 06:57:42;;;;;;;10.80;7.05;;;77.30;2227.20;;;;;;5117149;27;20044;-78
2022/02/03 07:00:17;;;;;;;14.55;7.65;;;77.30;2227.20;;;;;;5092357;28;20146;-88
2022/02/03 07:02:45;;;;;;;27.38;13.25;;;77.40;2227.20;;;;;;5101506;27;20023;-86
2022/02/03 07:05:11;;;;;;;17.75;10.13;;;77.40;2227.20;;;;;;5085043;27;20110;-88
2022/02/03 07:07:39;;;;;;;18.85;8.60;;;77.40;2227.20;;;;;;5083710;28;20186;-86
2022/02/03 07:10:07;;;;;;;7.25;4.95;;;77.50;2227.20;;;;;;5079022;27;20069;-86
2022/02/03 07:12:32;;;;;;;12.95;6.95;;;77.50;2227.20;;;;;;5078495;28;20020;-88
2022/02/03 07:15:00;;;;;;;10.15;6.03;;;77.50;2227.20;;;;;;5089265;28;20019;-87
2022/02/03 07:17:26;;;;;;;7.63;4.75;;;77.50;2227.20;;;;;;5085153;27;20020;-88
2022/02/03 07:19:54;;;;;;;7.00;4.40;;;77.50;2227.20;;;;;;5100645;27;20008;-86
2022/02/03 07:22:20;;;;;;;7.22;3.63;;;77.50;2227.20;;;;;;5079737;28;20038;-88
2022/02/03 07:24:51;;;;;;;12.20;5.93;;;77.50;2227.20;;;;;;5083220;27;20459;-86
2022/02/03 07:27:17;;;;;;;22.25;7.47;;;77.50;2227.20;;;;;;5082299;27;20055;-85
2022/02/03 07:29:42;;;;;;;10.48;5.97;;;77.50;2227.20;;;;;;5102210;27;20071;-88
2022/02/03 07:32:08;;;;;;;15.00;6.45;;;77.60;2227.20;;;;;;5096664;27;20024;-86
2022/02/03 07:34:34;;;;;;;9.35;5.45;;;77.60;2227.20;;;;;;5078983;28;20016;-86
2022/02/03 07:37:00;;;;;;;5.20;3.28;;;77.60;2227.20;;;;;;5080903;27;20019;-88
2022/02/03 07:39:26;;;;;;;6.47;4.97;;;77.60;2227.20;;;;;;5081369;27;20012;-88
2022/02/03 07:41:52;;;;;;;11.98;5.95;;;77.60;2227.20;;;;;;5094973;27;20019;-91
2022/02/03 07:44:17;;;;;;;9.68;5.00;;;77.60;2227.20;;;;;;5102379;27;20012;-89
2022/02/03 07:46:43;;;;;;;12.38;7.68;;;77.70;2227.20;;;;;;5080418;28;20024;-87
2022/02/03 07:49:09;;;;;;;10.68;5.75;;;102.40;2227.20;;;;;;5097610;27;20068;-87
2022/02/03 07:51:35;;;;;;;11.90;5.28;;;77.70;2227.20;;;;;;5102519;28;20011;-86
2022/02/03 07:54:01;;;;;;;15.48;8.15;;;102.40;2227.20;;;;;;5077654;28;20153;-86
2022/02/03 07:56:27;;;;;;;18.00;9.20;;;102.40;2227.20;;;;;;5082619;28;20016;-87
2022/02/03 07:58:52;;;;;;;14.57;6.97;;;102.40;2227.20;;;;;;5080533;28;20012;-88
2022/02/03 08:01:18;;;;;;;11.23;5.88;;;102.40;2227.20;;;;;;5081531;28;20008;-86
2022/02/03 08:03:45;;;;;;;17.80;10.88;;;102.40;2227.20;;;;;;5083329;28;20460;-87
2022/02/03 08:06:18;;;;;;;12.75;7.38;;;102.40;2227.20;;;;;;5091951;27;20019;-88
2022/02/03 08:08:49;;;;;;;21.95;7.85;;;102.40;2227.20;;;;;;5102553;27;20477;-87
2022/02/03 08:11:22;;;;;;;16.42;9.15;;;102.50;2227.20;;;;;;5098197;28;20034;-86
2022/02/03 08:14:06;;;;;;;17.95;8.57;;;102.50;2227.20;;;;;;5092469;27;20026;-88
2022/02/03 08:16:40;;;;;;;16.48;8.02;;;102.50;2227.20;;;;;;5104321;27;20022;-88
2022/02/03 08:19:12;;;;;;;;;;;102.50;2227.20;;;;;;5095695;27;20137;-88
2022/02/03 08:21:43;;;;;;;15.45;7.10;;;102.50;2227.20;;;;;;5118982;27;19908;-90
2022/02/03 08:32:16;;;;;;;17.42;6.15;;;102.50;2227.20;;;;;;5096036;27;20024;-82
2022/02/03 08:35:07;;;;;;;8.48;5.32;;;102.70;2227.20;;;;;;5102027;28;20466;-82
2022/02/03 08:40:21;;;;;;;13.75;6.53;;;102.60;2227.20;;;;;;5101029;27;20024;-83
2022/02/03 08:42:47;;;;;;;11.90;7.25;;;102.60;2227.20;;;;;;5116490;27;20561;-82
2022/02/03 08:45:12;;;;;;;13.02;8.85;;;102.60;2227.20;;;;;;5100948;27;20016;-82
2022/02/03 08:47:38;;;;;;;15.93;7.18;;;102.80;2227.20;;;;;;5101529;27;20016;-83
2022/02/03 08:50:08;;;;;;;11.60;5.90;;;102.70;2227.20;;;;;;5096531;27;20023;-81
2022/02/03 08:52:43;;;;;;;12.35;6.95;;;102.60;2227.20;;;;;;5098783;27;20016;-79
2022/02/03 08:58:18;;;;;;;10.15;5.47;;;102.80;2227.20;;;;;;5095036;27;20052;-79
2022/02/03 09:41:18;;;;;;;11.52;5.00;;;102.90;2201.60;;;;;;5112748;27;20586;-78
2022/02/03 09:54:59;;;;;;;13.25;8.50;;;103.00;2227.20;;;;;;5101007;27;20168;-76
2022/02/03 10:02:22;;;;;;;13.52;5.65;;;103.20;2201.60;;;;;;5095962;28;20016;-76
2022/02/03 10:07:25;;;;;;;13.60;5.03;;;103.00;2176.00;;;;;;5092878;28;20031;-75
2022/02/03 10:09:55;;;;;;;8.60;3.97;;;103.10;2227.20;;;;;;5095196;27;20008;-78
2022/02/03 10:12:31;;;;;;;6.40;4.30;;;103.10;2176.00;;;;;;5078690;28;20034;-76
2022/02/03 10:14:57;;;;;;;9.23;5.57;;;103.20;2150.40;;;;;;5113322;27;20067;-76
2022/02/03 10:17:35;;;;;;;13.40;7.47;;;103.00;2176.00;;;;;;5087598;28;20023;-79
2022/02/03 10:20:03;;;;;;;12.70;5.20;;;103.20;2176.00;;;;;;5124136;27;20023;-75
2022/02/03 10:22:30;;;;;;;12.15;6.22;;;103.20;2150.40;;;;;;5093085;28;20663;-78
2022/02/03 10:25:13;;;;;;;13.07;6.03;;;103.10;2150.40;;;;;;5111178;28;20069;-75
2022/02/03 10:27:43;;;;;;;6.57;4.90;;;103.10;2176.00;;;;;;5100768;28;20033;-91
2022/02/03 10:30:20;;;;;;;5.65;4.22;;;103.10;2150.40;;;;;;5130769;28;20046;-78
2022/02/03 10:32:48;;;;;;;18.52;7.78;;;103.10;2124.80;;;;;;5119255;28;21296;-82
2022/02/03 11:00:10;;;;;;;10.25;4.90;;;128.30;2048.00;;;;;;5107791;28;20020;-78
2022/02/03 11:08:14;;;;;;;15.50;5.97;;;128.70;2022.40;;;;;;5092778;28;20028;-83
2022/02/03 11:10:43;;;;;;;17.27;5.90;;;128.20;2022.40;;;;;;5099501;28;20019;-83
2022/02/03 11:13:10;;;;;;;9.63;4.93;;;128.40;2048.00;;;;;;5098845;28;20023;-81
2022/02/03 11:15:36;;;;;;;12.07;5.25;;;128.60;2048.00;;;;;;5093271;28;20058;-83
2022/02/03 11:18:07;;;;;;;11.77;6.45;;;128.90;1996.80;;;;;;5077826;28;20135;-81
2022/02/03 11:20:36;;;;;;;10.73;5.22;;;128.70;1971.20;;;;;;5082837;27;20019;-80
2022/02/03 11:36:31;;;;;;;8.40;4.60;;;128.50;1920.00;;;;;;5098253;27;20019;-78
2022/02/03 12:03:24;;;;;;;14.07;4.03;;;153.90;1868.80;;;;;;5101742;27;20012;-81
2022/02/03 12:21:59;;;;;;;19.13;8.68;;;154.40;1689.60;;;;;;5120673;27;20020;-79
2022/02/03 12:27:46;;;;;;;12.77;5.43;;;154.50;1689.60;;;;;;5110987;27;20020;-78
2022/02/03 12:30:26;;;;;;;17.25;10.65;;;154.10;1689.60;;;;;;5103740;27;20525;-78
2022/02/03 12:36:58;;;;;;;13.32;6.55;;;179.20;1638.40;;;;;;5097043;28;20011;-78
2022/02/03 12:38:38;;;;;;;8.68;4.57;;;179.20;1587.20;;;;;;5097625;27;20115;-77
2022/02/03 12:41:14;;;;;;;16.92;9.10;;;154.40;1612.80;;;;;;5082040;28;20016;-79
2022/02/03 12:43:55;;;;;;;7.78;3.75;;;179.40;1536.00;;;;;;5093206;28;20044;-76
2022/02/03 12:46:21;;;;;;;10.85;5.35;;;;;;;;;;5121192;27;20019;-76
2022/02/03 12:48:58;;;;;;;6.68;4.50;;;179.30;1587.20;;;;;;5099894;27;20050;-77
2022/02/03 12:51:24;;;;;;;11.13;4.55;;;179.40;1612.80;;;;;;5096156;27;20111;-76
2022/02/03 12:53:50;;;;;;;11.77;4.43;;;179.60;1536.00;;;;;;5084148;28;20094;-76
2022/02/03 12:56:20;;;;;;;10.20;4.68;;;179.70;1561.60;;;;;;5100468;27;20575;-76
2022/02/03 12:58:49;;;;;;;14.73;3.83;;;179.90;1536.00;;;;;;5100181;27;20565;-77
2022/02/03 13:01:17;;;;;;;15.05;9.48;;;179.50;1536.00;;;;;;5099252;27;20419;-76
2022/02/03 13:03:49;;;;;;;6.35;3.72;;;179.80;1510.40;;;;;;5077792;27;20362;-76
2022/02/03 13:06:19;;;;;;;10.02;5.65;;;179.60;1459.20;;;;;;5092108;28;20046;-76
2022/02/03 13:08:54;;;;;;;7.18;4.93;;;180.00;1484.80;;;;;;5097995;27;20033;-77
2022/02/03 13:19:42;;;;;;;20.35;9.25;;;205.00;1433.60;;;;;;5131560;27;20011;-76
2022/02/03 13:27:10;;;;;;;10.43;5.18;;;205.40;1382.40;;;;;;5132265;27;20019;-76
2022/02/03 13:29:57;;;;;;;9.43;5.28;;;204.80;1408.00;;;;;;5131165;27;20054;-77
2022/02/03 13:32:28;;;;;;;13.63;6.07;;;180.10;1408.00;;;;;;5131602;27;20038;-76
2022/02/03 13:35:12;;;;;;;13.27;7.20;;;180.00;1433.60;;;;;;5131476;27;20106;-76
2022/02/03 13:37:45;;;;;;;13.50;5.18;;;179.80;1484.80;;;;;;5112344;27;20371;-77
2022/02/03 13:40:16;;;;;;;16.65;6.53;;;179.90;1433.60;;;;;;5131306;27;20015;-77
2022/02/03 13:42:47;;;;;;;9.77;5.55;;;180.10;1433.60;;;;;;5130699;27;20018;-76
2022/02/03 13:45:15;;;;;;;11.77;6.32;;;179.80;1484.80;;;;;;5112793;27;20046;-76
2022/02/03 13:47:42;;;;;;;11.98;4.25;;;179.70;1484.80;;;;;;5113011;27;20030;-77
2022/02/03 13:50:15;;;;;;;15.50;6.85;;;179.50;1484.80;;;;;;5112217;28;20016;-77
2022/02/03 14:28:16;;;;;;;6.68;4.47;;;179.40;1587.20;;;;;;5113604;28;20039;-77
2022/02/03 14:30:45;;;;;;;11.98;5.50;;;154.50;1587.20;;;;;;5107675;28;20031;-75
2022/02/03 14:33:13;;;;;;;8.57;5.43;;;154.50;1587.20;;;;;;5103809;28;20024;-76
2022/02/03 14:35:40;;;;;;;10.30;4.75;;;154.30;1561.60;;;;;;5092846;28;20515;-75
2022/02/03 14:38:31;;;;;;;13.10;7.38;;;154.30;1536.00;;;;;;5092246;28;20100;-78
2022/02/03 14:41:09;;;;;;;18.75;8.57;;;154.30;1561.60;;;;;;5110683;28;20027;-75
2022/02/03 14:43:34;;;;;;;17.60;9.77;;;154.20;1561.60;;;;;;5104286;28;20023;-75
2022/02/03 14:46:02;;;;;;;11.52;5.85;;;154.20;1612.80;;;;;;5108016;28;20020;-75
2022/02/03 14:48:27;;;;;;;15.57;7.82;;;154.20;1612.80;;;;;;5102806;28;20072;-76
2022/02/03 14:50:59;;;;;;;9.82;6.03;;;154.20;1612.80;;;;;;5093283;28;20046;-77
2022/02/03 14:53:47;;;;;;;19.08;7.72;;;154.20;1587.20;;;;;;5102483;28;20092;-76
2022/02/03 14:58:57;;;;;;;;;;;154.30;1612.80;;;;;;5107377;27;20081;-75
2022/02/03 15:01:23;;;;;;;13.88;7.88;;;154.10;1612.80;;;;;;5098061;27;19900;-76
2022/02/03 15:03:53;;;;;;;31.67;14.20;;;154.10;1612.80;;;;;;5085322;27;20026;-77
2022/02/03 15:06:23;;;;;;;31.88;15.20;;;154.10;1638.40;;;;;;5103068;27;20018;-75
2022/02/03 15:09:13;;;;;;;21.77;9.23;;;154.20;1638.40;;;;;;5099861;27;20020;-75
2022/02/03 15:11:54;;;;;;;19.35;10.98;;;154.20;1612.80;;;;;;5094486;27;20026;-76
2022/02/03 15:14:20;;;;;;;21.15;9.63;;;154.10;1638.40;;;;;;5100599;27;20024;-76
2022/02/03 15:16:45;;;;;;;14.75;7.90;;;154.10;1612.80;;;;;;5083533;27;20034;-77
2022/02/03 15:19:11;;;;;;;27.00;9.65;;;154.10;1638.40;;;;;;5100366;27;20017;-76
2022/02/03 15:21:37;;;;;;;19.02;8.60;;;154.20;1638.40;;;;;;5101612;27;20004;-76
2022/02/03 15:24:03;;;;;;;25.60;11.27;;;154.10;1612.80;;;;;;5097195;27;20008;-76
2022/02/03 15:26:29;;;;;;;14.30;8.40;;;154.10;1638.40;;;;;;5095553;27;20031;-76
2022/02/03 15:28:55;;;;;;;20.92;10.05;;;154.10;1612.80;;;;;;5098561;27;20035;-75
2022/02/03 15:31:23;;;;;;;25.67;12.48;;;154.00;1638.40;;;;;;5101493;27;20024;-76
2022/02/03 15:33:56;;;;;;;15.18;7.65;;;154.00;1664.00;;;;;;5099735;27;20667;-76
2022/02/03 15:36:22;;;;;;;10.02;4.63;;;153.90;1638.40;;;;;;5102301;27;20023;-75
2022/02/03 15:38:49;;;;;;;25.98;10.63;;;153.80;1664.00;;;;;;5096137;28;20023;-76
2022/02/03 15:41:23;;;;;;;19.05;7.60;;;153.80;1664.00;;;;;;5108190;28;20378;-76
2022/02/03 15:43:50;;;;;;;;;;;153.80;1664.00;;;;;;5094519;27;20244;-76
2022/02/03 15:46:18;;;;;;;13.98;8.07;;;153.80;1689.60;;;;;;5093721;27;19908;-76
2022/02/03 15:48:53;;;;;;;26.40;12.98;;;153.80;1689.60;;;;;;5094300;27;20507;-76
2022/02/03 15:56:11;;;;;;;26.05;12.35;;;153.80;1715.20;;;;;;5093582;28;20117;-77
2022/02/03 15:57:06;;;;;;;;;;;153.80;1689.60;;;;;;5113889;27;20081;-75
2022/02/03 16:02:56;;;;;;;28.38;13.35;;;153.80;1689.60;;;;;;5061505;28;20048;-76
2022/02/03 16:15:02;;;;;;;22.25;14.73;;;153.70;1715.20;;;;;;5110726;28;19907;-86
2022/02/03 16:18:57;;;;;;;68.60;38.20;;;153.70;1715.20;;;;;;5100229;28;20390;-80
2022/02/03 16:21:31;;;;;;;135.20;76.85;;;153.70;1715.20;;;;;;5085335;28;20041;-82
2022/02/03 16:27:00;;;;;;;88.07;50.03;;;153.70;1689.60;;;;;;5105401;27;20458;-80
2022/02/03 16:43:35;;;;;;;94.10;50.42;;;153.60;1715.20;;;;;;5124647;27;19911;-76
2022/02/03 16:50:23;;;;;;;138.93;77.38;;;128.90;1715.20;;;;;;5097266;27;20974;-76
2022/02/03 16:50:24;;;;;;;96.30;56.13;;;128.90;1715.20;;;;;;5078536;27;20024;-75
2022/02/03 16:54:16;;;;;;;157.32;84.03;;;153.60;1689.60;;;;;;5112828;28;20016;-76
2022/02/03 16:56:43;;;;;;;81.50;45.60;;;153.60;1715.20;;;;;;5093881;28;20439;-76
2022/02/03 16:59:09;;;;;;;94.15;55.50;;;153.60;1689.60;;;;;;5095032;28;20007;-75
2022/02/03 17:01:35;;;;;;;108.50;55.33;;;153.60;1740.80;;;;;;5113902;27;20449;-76
2022/02/03 17:04:00;;;;;;;98.85;53.45;;;153.60;1766.40;;;;;;5114685;27;20011;-76
2022/02/03 17:06:26;;;;;;;107.78;61.65;;;128.90;1715.20;;;;;;5114507;27;20022;-76
2022/02/03 17:08:52;;;;;;;123.88;66.55;;;128.90;1766.40;;;;;;5102993;28;20103;-76
2022/02/03 17:11:18;;;;;;;117.68;63.17;;;128.80;1792.00;;;;;;5129044;27;20019;-75
2022/02/03 17:13:44;;;;;;;74.07;44.30;;;128.80;1792.00;;;;;;5105399;27;20064;-76
2022/02/03 17:16:13;;;;;;;45.63;27.35;;;128.60;1766.40;;;;;;5116971;27;20043;-75
2022/02/03 17:18:39;;;;;;;47.72;28.67;;;128.60;1766.40;;;;;;5113704;27;20019;-75
2022/02/03 17:21:05;;;;;;;54.55;34.65;;;128.60;1766.40;;;;;;5132770;27;20018;-74
2022/02/03 17:23:30;;;;;;;69.03;44.40;;;128.50;1792.00;;;;;;5110762;28;20012;-75
2022/02/03 17:28:33;;;;;;;95.05;59.08;;;128.50;1843.20;;;;;;5112553;27;20494;-76
2022/02/03 18:30:13;;;;;;;55.95;34.00;;;128.20;1920.00;;;;;;5109831;28;20462;-76
2022/02/03 18:51:43;;;;;;;102.75;66.47;;;103.00;2022.40;;;;;;5109834;28;20019;-77
2022/02/03 18:54:34;;;;;;;92.70;52.35;;;102.90;2022.40;;;;;;5116065;28;20022;-77
2022/02/03 19:02:36;;;;;;;124.72;70.07;;;102.80;2048.00;;;;;;5103043;28;20023;-76
2022/02/03 20:08:43;;;;;;;79.55;48.40;;;76.90;2227.20;;;;;;5109875;27;20061;-76
2022/02/03 20:11:11;;;;;;;118.93;65.85;;;76.90;2227.20;;;;;;5114583;27;20020;-77
2022/02/03 20:13:36;;;;;;;135.80;75.18;;;76.90;2227.20;;;;;;5117567;27;20485;-77
2022/02/03 20:16:04;;;;;;;189.10;108.63;;;76.90;2227.20;;;;;;5095715;28;20016;-77
2022/02/03 20:18:29;;;;;;;135.52;78.68;;;76.80;2227.20;;;;;;5121986;27;20168;-76
2022/02/03 20:20:56;;;;;;;134.00;78.78;;;76.80;2227.20;;;;;;5094229;28;20102;-77
2022/02/03 20:23:23;;;;;;;99.93;60.85;;;76.80;2227.20;;;;;;5106821;27;20045;-75
2022/02/03 20:25:58;;;;;;;142.43;85.93;;;52.10;2227.20;;;;;;5133814;27;20011;-79
2022/02/03 20:28:27;;;;;;;136.13;81.80;;;52.10;2227.20;;;;;;5111614;27;20004;-76
2022/02/03 20:30:54;;;;;;;121.22;79.88;;;52.10;2227.20;;;;;;5091005;28;20390;-75
2022/02/03 20:33:21;;;;;;;142.27;89.93;;;52.10;2227.20;;;;;;5083741;28;20702;-77
2022/02/03 20:35:47;;;;;;;167.10;98.20;;;52.10;2227.20;;;;;;5089435;28;20024;-75
2022/02/03 20:38:15;;;;;;;162.90;97.65;;;52.10;2227.20;;;;;;5091977;28;22010;-76
2022/02/03 20:40:42;;;;;;;197.85;115.53;;;52.10;2227.20;;;;;;5092041;28;20008;-76
2022/02/03 20:43:07;;;;;;;182.93;109.82;;;52.00;2227.20;;;;;;5089535;28;20021;-75
2022/02/03 20:45:33;;;;;;;255.02;156.38;;;52.00;2227.20;;;;;;5089008;28;20103;-78
2022/02/03 20:47:59;;;;;;;212.23;128.25;;;52.00;2227.20;;;;;;5103478;28;20013;-89
2022/02/03 20:50:24;;;;;;;234.90;136.38;;;51.90;2227.20;;;;;;5091204;28;20347;-77
2022/02/03 20:52:50;;;;;;;267.42;158.90;;;51.90;2227.20;;;;;;5090447;28;20027;-84
2022/02/03 21:46:50;;;;;;;218.77;142.60;;;77.10;2227.20;;;;;;5062954;28;20447;-78
2022/02/03 21:49:18;;;;;;;149.65;97.75;;;77.10;2227.20;;;;;;5081628;28;20438;-85
2022/02/03 21:51:45;;;;;;;115.93;73.70;;;76.80;2227.20;;;;;;5048203;28;20075;-77
2022/02/03 21:54:11;;;;;;;130.60;82.25;;;52.00;2227.20;;;;;;5044975;28;20060;-78
2022/02/03 21:56:37;;;;;;;123.78;71.38;;;51.90;2227.20;;;;;;5048367;28;20053;-75
2022/02/03 21:59:07;;;;;;;162.80;97.20;;;51.80;2227.20;;;;;;5048982;28;20044;-75
2022/02/03 22:01:36;;;;;;;154.65;94.65;;;51.70;2227.20;;;;;;5048793;28;20067;-76
2022/02/03 22:04:02;;;;;;;273.65;156.38;;;51.70;2227.20;;;;;;5048479;28;20036;-76
2022/02/03 22:06:28;;;;;;;262.05;158.38;;;51.70;2227.20;;;;;;5048776;28;20079;-76
2022/02/03 22:08:53;;;;;;;285.00;181.20;;;51.70;2227.20;;;;;;5048602;28;20033;-76
2022/02/03 22:11:19;;;;;;;268.90;168.32;;;51.60;2227.20;;;;;;5047345;28;20025;-75
2022/02/03 22:13:45;;;;;;;270.65;162.27;;;51.60;2227.20;;;;;;5048485;28;20029;-75
2022/02/03 22:16:15;;;;;;;272.67;167.00;;;51.60;2227.20;;;;;;5047211;28;20480;-75
2022/02/03 22:18:41;;;;;;;280.00;161.07;;;51.50;2227.20;;;;;;5048490;28;20079;-77
2022/02/03 22:21:26;;;;;;;258.98;156.50;;;51.50;2227.20;;;;;;5048510;28;20497;-76
2022/02/03 22:27:04;;;;;;;259.40;157.68;;;51.30;2227.20;;;;;;5046618;28;20029;-76
2022/02/03 22:46:08;;;;;;;264.77;159.30;;;26.20;2201.60;;;;;;5044620;28;20060;-76
2022/02/03 22:48:34;;;;;;;265.50;165.48;;;26.10;2201.60;;;;;;5033360;28;20460;-76
2022/02/03 22:51:03;;;;;;;273.48;168.27;;;25.90;2201.60;;;;;;5033378;28;20048;-76
2022/02/03 22:53:33;;;;;;;294.40;181.35;;;25.90;2201.60;;;;;;5033256;28;20488;-75
2022/02/03 22:56:04;;;;;;;298.67;187.93;;;25.90;2201.60;;;;;;5032637;28;20132;-76
2022/02/03 23:01:15;;;;;;;275.55;178.60;;;25.80;2201.60;;;;;;5034074;28;20105;-76
2022/02/03 23:03:41;;;;;;;277.83;176.63;;;25.80;2201.60;;;;;;5034146;28;20104;-76
2022/02/03 23:06:09;;;;;;;248.27;158.77;;;25.70;2201.60;;;;;;5032035;28;20029;-76
2022/02/03 23:21:46;;;;;;;301.80;187.75;;;25.80;2201.60;;;;;;5032156;28;20083;-76
2022/02/03 23:24:12;;;;;;;319.05;189.68;;;25.90;2201.60;;;;;;5031106;28;20107;-76
2022/02/03 23:26:38;;;;;;;259.40;165.27;;;25.90;2201.60;;;;;;5033516;28;20083;-82
2022/02/03 23:29:09;;;;;;;209.73;126.75;;;25.90;2201.60;;;;;;5030831;28;20456;-75
2022/02/03 23:31:48;;;;;;;222.38;131.68;;;25.90;2201.60;;;;;;5032918;28;20471;-77
2022/02/03 23:34:15;;;;;;;191.93;113.20;;;25.90;2201.60;;;;;;5030804;28;20116;-76
2022/02/03 23:36:43;;;;;;;175.55;109.13;;;26.00;2201.60;;;;;;5026546;28;20145;-78
2022/02/03 23:39:21;;;;;;;188.98;115.38;;;25.90;2201.60;;;;;;5030095;28;20506;-75
2022/02/03 23:44:34;;;;;;;175.80;106.20;;;26.00;2201.60;;;;;;5029589;28;20033;-76
